createdAt,value
2019-05-01T00:01:29.386Z,152882.34
2019-05-01T00:04:14.684Z,152861.30
2019-05-01T00:06:47.258Z,152800.81
2019-05-01T00:09:16.785Z,152808.66
2019-05-01T00:11:45.322Z,152799.50
2019-05-01T00:14:14.139Z,152778.47
2019-05-01T00:16:44.111Z,152774.48
2019-05-01T00:19:12.579Z,152750.84
2019-05-01T00:21:41.081Z,152799.50
2019-05-01T00:24:09.643Z,152792.91
2019-05-01T00:26:38.119Z,152804.73
2019-05-01T00:29:06.600Z,152815.25
2019-05-01T00:31:35.116Z,152783.69
2019-05-01T00:34:03.589Z,152804.73
2019-05-01T00:36:32.131Z,152753.45
2019-05-01T00:39:00.648Z,152817.88
2019-05-01T00:41:29.151Z,152792.91
2019-05-01T00:43:57.695Z,152753.45
2019-05-01T00:46:26.206Z,152711.39
2019-05-01T00:48:54.683Z,152686.44
2019-05-01T00:51:23.170Z,152696.95
2019-05-01T00:53:51.652Z,152692.98
2019-05-01T00:56:21.962Z,152707.47
2019-05-01T00:58:57.938Z,152728.50
2019-05-01T01:01:37.268Z,152719.30
2019-05-01T01:04:05.756Z,152690.38
2019-05-01T01:06:34.243Z,152737.72
2019-05-01T01:09:03.009Z,152733.73
2019-05-01T01:11:31.512Z,152710.09
2019-05-01T01:13:59.983Z,152720.61
2019-05-01T01:16:28.469Z,152717.98
2019-05-01T01:18:56.954Z,152724.53
2019-05-01T01:21:25.486Z,152725.84
2019-05-01T01:23:54.032Z,152717.98
2019-05-01T01:26:22.602Z,152744.25
2019-05-01T01:28:51.151Z,152760.05
2019-05-01T01:31:19.662Z,152707.47
2019-05-01T01:33:48.138Z,152702.19
2019-05-01T01:36:16.626Z,152699.58
2019-05-01T01:38:45.118Z,152702.19
2019-05-01T01:41:13.866Z,152703.50
2019-05-01T01:43:53.134Z,152710.09
2019-05-01T01:46:29.105Z,152711.39
2019-05-01T01:48:58.609Z,152721.91
2019-05-01T01:51:27.934Z,152694.30
2019-05-01T01:53:57.954Z,152731.13
2019-05-01T01:56:26.994Z,152728.50
2019-05-01T01:58:56.210Z,152736.36
2019-05-01T02:01:26.793Z,152719.30
2019-05-01T02:06:44.782Z,152721.91
2019-05-01T02:09:13.434Z,152723.22
2019-05-01T02:11:42.284Z,152731.13
2019-05-01T02:14:10.846Z,152731.13
2019-05-01T02:16:39.343Z,152710.09
2019-05-01T02:19:08.002Z,152724.53
2019-05-01T02:21:36.490Z,152735.05
2019-05-01T02:24:05.085Z,152741.63
2019-05-01T02:26:35.832Z,152735.05
2019-05-01T02:29:15.664Z,152725.84
2019-05-01T02:31:46.311Z,152715.31
2019-05-01T02:34:16.160Z,152723.22
2019-05-01T02:36:46.869Z,152710.09
2019-05-01T02:39:17.212Z,152712.70
2019-05-01T02:41:48.279Z,152720.61
2019-05-01T02:44:22.782Z,152711.39
2019-05-01T02:46:53.843Z,152699.58
2019-05-01T02:49:31.169Z,152715.31
2019-05-01T02:51:59.908Z,152724.53
2019-05-01T02:54:29.611Z,152710.09
2019-05-01T02:57:03.879Z,152710.09
2019-05-01T02:59:35.101Z,152710.09
2019-05-01T03:02:04.816Z,152723.22
2019-05-01T03:04:34.251Z,152737.72
2019-05-01T03:07:04.536Z,152733.73
2019-05-01T03:09:34.943Z,152720.61
2019-05-01T03:12:04.262Z,152725.84
2019-05-01T03:14:35.899Z,152723.22
2019-05-01T03:17:06.980Z,152733.73
2019-05-01T03:19:37.129Z,152723.22
2019-05-01T03:22:17.104Z,152710.09
2019-05-01T03:24:45.612Z,152708.78
2019-05-01T03:27:14.144Z,152702.19
2019-05-01T03:29:42.651Z,152712.70
2019-05-01T03:32:18.597Z,152696.95
2019-05-01T03:34:41.837Z,152674.63
2019-05-01T03:37:10.698Z,152685.14
2019-05-01T03:39:39.866Z,152687.75
2019-05-01T03:42:08.708Z,152661.44
2019-05-01T03:44:37.644Z,152664.11
2019-05-01T03:47:06.158Z,152644.39
2019-05-01T03:49:35.013Z,152633.87
2019-05-01T03:52:03.886Z,152640.42
2019-05-01T03:54:33.466Z,152641.72
2019-05-01T03:57:02.735Z,152628.59
2019-05-01T03:59:31.411Z,152643.03
2019-05-01T04:02:32.029Z,152652.25
2019-05-01T04:04:48.150Z,152637.80
2019-05-01T04:07:16.998Z,152649.62
2019-05-01T04:09:45.515Z,152623.37
2019-05-01T04:12:14.367Z,152628.59
2019-05-01T04:14:42.877Z,152629.91
2019-05-01T04:17:22.246Z,152623.37
2019-05-01T04:19:51.221Z,152625.98
2019-05-01T04:22:19.918Z,152631.22
2019-05-01T04:24:48.956Z,152608.88
2019-05-01T04:27:19.350Z,152599.69
2019-05-01T04:30:00.009Z,152603.66
2019-05-01T04:32:30.790Z,152593.09
2019-05-01T04:35:17.904Z,152597.06
2019-05-01T04:37:46.896Z,152591.78
2019-05-01T04:40:18.772Z,152597.06
2019-05-01T04:42:46.420Z,152598.38
2019-05-01T04:45:15.163Z,152570.72
2019-05-01T04:47:44.193Z,152570.72
2019-05-01T04:50:12.773Z,152583.89
2019-05-01T04:52:41.803Z,152597.06
2019-05-01T04:55:11.013Z,152595.75
2019-05-01T04:57:39.795Z,152594.45
2019-05-01T05:00:08.786Z,152589.13
2019-05-01T05:02:45.335Z,152576.00
2019-05-01T05:05:14.119Z,152573.38
2019-05-01T05:07:43.065Z,152572.08
2019-05-01T05:10:11.908Z,152579.92
2019-05-01T05:12:49.084Z,152590.42
2019-05-01T05:15:25.619Z,152583.89
2019-05-01T05:17:54.656Z,152582.59
2019-05-01T05:20:23.880Z,152616.78
2019-05-01T05:22:52.642Z,152633.87
2019-05-01T05:25:21.310Z,152636.50
2019-05-01T05:27:51.818Z,152623.37
2019-05-01T05:30:22.030Z,152620.70
2019-05-01T05:32:52.837Z,152620.70
2019-05-01T05:35:24.563Z,152633.87
2019-05-01T05:37:57.382Z,152649.62
2019-05-01T05:40:29.927Z,152675.94
2019-05-01T05:42:58.614Z,152702.19
2019-05-01T05:45:27.368Z,152731.13
2019-05-01T05:47:56.074Z,152720.61
2019-05-01T05:50:31.870Z,152723.22
2019-05-01T05:53:10.251Z,152721.91
2019-05-01T05:55:41.737Z,152760.05
2019-05-01T05:58:14.293Z,152796.84
2019-05-01T06:00:49.225Z,152810.02
2019-05-01T06:03:31.622Z,152825.77
2019-05-01T06:06:11.539Z,152884.97
2019-05-01T06:08:43.445Z,152875.75
2019-05-01T06:11:29.712Z,152870.47
2019-05-01T06:14:04.186Z,152804.73
2019-05-01T06:16:40.440Z,152790.28
2019-05-01T06:19:23.069Z,152785.00
2019-05-01T06:22:11.876Z,152770.56
2019-05-01T06:24:59.082Z,152750.84
2019-05-01T06:27:28.191Z,152757.44
2019-05-01T06:29:58.238Z,152710.09
2019-05-01T06:32:28.907Z,152678.55
2019-05-01T06:34:58.569Z,152692.98
2019-05-01T06:38:00.694Z,152723.22
2019-05-01T06:40:41.834Z,152820.53
2019-05-01T06:45:53.157Z,152988.92
2019-05-01T06:48:23.306Z,152967.88
2019-05-01T06:50:54.179Z,152977.09
2019-05-01T06:53:23.492Z,153028.41
2019-05-01T06:55:52.642Z,153057.31
2019-05-01T06:58:22.247Z,153036.25
2019-05-01T07:00:52.199Z,152953.33
2019-05-01T07:03:21.534Z,152961.28
2019-05-01T07:05:54.470Z,152902.03
2019-05-01T07:08:24.808Z,152831.05
2019-05-01T07:10:51.589Z,152841.58
2019-05-01T07:13:20.206Z,152821.84
2019-05-01T07:15:48.784Z,152819.17
2019-05-01T07:18:18.838Z,152828.38
2019-05-01T07:20:51.368Z,152821.84
2019-05-01T07:23:21.605Z,152794.22
2019-05-01T07:25:50.630Z,152802.12
2019-05-01T07:28:19.453Z,152828.38
2019-05-01T07:30:54.783Z,152802.12
2019-05-01T07:33:23.941Z,152831.05
2019-05-01T07:35:54.035Z,152829.75
2019-05-01T07:38:22.889Z,152831.05
2019-05-01T07:40:51.495Z,152796.84
2019-05-01T07:43:27.657Z,152767.95
2019-05-01T07:46:04.262Z,152765.28
2019-05-01T07:48:41.557Z,152774.48
2019-05-01T07:51:11.528Z,152732.44
2019-05-01T07:53:40.650Z,152744.25
2019-05-01T07:56:10.184Z,152777.11
2019-05-01T07:58:39.512Z,152807.34
2019-05-01T08:01:13.149Z,152852.09
2019-05-01T08:03:42.624Z,152902.03
2019-05-01T08:06:16.192Z,152957.34
2019-05-01T08:08:43.052Z,153057.31
2019-05-01T08:11:11.678Z,153127.06
2019-05-01T08:13:40.137Z,153095.48
2019-05-01T08:16:08.920Z,153062.59
2019-05-01T08:18:54.271Z,153070.50
2019-05-01T08:21:39.263Z,153046.78
2019-05-01T08:24:08.776Z,153083.64
2019-05-01T08:26:42.589Z,153112.61
2019-05-01T08:29:09.241Z,153115.22
2019-05-01T08:31:39.427Z,153131.05
2019-05-01T08:34:09.557Z,153207.38
2019-05-01T08:36:38.118Z,153228.44
2019-05-01T08:39:09.263Z,153228.44
2019-05-01T08:41:37.821Z,153269.25
2019-05-01T08:44:07.433Z,153249.50
2019-05-01T08:46:53.961Z,153361.50
2019-05-01T08:49:26.761Z,153429.95
2019-05-01T08:51:55.307Z,153397.03
2019-05-01T08:54:23.807Z,153397.03
2019-05-01T08:56:53.140Z,153530.11
2019-05-01T08:59:24.111Z,153621.12
2019-05-01T09:02:08.416Z,153787.23
2019-05-01T09:04:25.422Z,153808.34
2019-05-01T09:06:53.175Z,154032.64
2019-05-01T09:09:21.747Z,154152.84
2019-05-01T09:11:50.225Z,154241.28
2019-05-01T09:14:18.721Z,154243.97
2019-05-01T09:16:47.220Z,154320.55
2019-05-01T09:19:15.808Z,154321.86
2019-05-01T09:21:44.356Z,154299.41
2019-05-01T09:24:12.867Z,154464.61
2019-05-01T09:26:50.146Z,154411.75
2019-05-01T09:29:21.268Z,154430.27
2019-05-01T09:31:50.223Z,154629.89
2019-05-01T09:34:20.728Z,154502.95
2019-05-01T09:36:49.237Z,154620.63
2019-05-01T09:39:19.479Z,154555.81
2019-05-01T09:41:48.826Z,154905.02
2019-05-01T09:44:17.506Z,154950.03
2019-05-01T09:46:46.206Z,155191.00
2019-05-01T09:49:18.285Z,154997.66
2019-05-01T09:51:52.392Z,154998.97
2019-05-01T09:54:25.562Z,155103.59
2019-05-01T09:56:54.109Z,154995.02
2019-05-01T09:59:22.753Z,154996.33
2019-05-01T10:01:51.406Z,155009.56
2019-05-01T10:04:19.907Z,155175.09
2019-05-01T10:06:52.326Z,155286.41
2019-05-01T10:09:18.610Z,155062.55
2019-05-01T10:11:47.194Z,155450.69
2019-05-01T10:14:15.881Z,155061.23
2019-05-01T10:16:44.499Z,155140.67
2019-05-01T10:19:13.009Z,154834.88
2019-05-01T10:21:41.532Z,154912.97
2019-05-01T10:24:10.132Z,154736.97
2019-05-01T10:26:40.534Z,154616.67
2019-05-01T10:29:13.360Z,154619.31
2019-05-01T10:31:55.573Z,154541.25
2019-05-01T10:34:42.879Z,154770.03
2019-05-01T10:37:12.680Z,154779.30
2019-05-01T10:39:41.445Z,154813.67
2019-05-01T10:42:09.923Z,155160.55
2019-05-01T10:44:38.423Z,155275.81
2019-05-01T10:47:06.967Z,155016.19
2019-05-01T10:49:35.574Z,155185.69
2019-05-01T10:52:13.879Z,155145.95
2019-05-01T10:54:34.507Z,155221.47
2019-05-01T10:57:03.731Z,155038.69
2019-05-01T10:59:33.152Z,154955.31
2019-05-01T11:02:03.458Z,154832.25
2019-05-01T11:04:31.985Z,154624.56
2019-05-01T11:07:00.487Z,154575.64
2019-05-01T11:09:28.965Z,154553.12
2019-05-01T11:11:57.464Z,154537.30
2019-05-01T11:14:25.938Z,154531.98
2019-05-01T11:16:54.459Z,154418.34
2019-05-01T11:19:22.957Z,154436.84
2019-05-01T11:21:51.516Z,154475.19
2019-05-01T11:24:19.995Z,154386.63
2019-05-01T11:26:48.480Z,154373.44
2019-05-01T11:29:16.985Z,154394.56
2019-05-01T11:32:03.621Z,154362.81
2019-05-01T11:34:33.744Z,154489.69
2019-05-01T11:37:20.573Z,154530.67
2019-05-01T11:39:56.632Z,154436.84
2019-05-01T11:42:25.149Z,154389.31
2019-05-01T11:44:53.610Z,154315.28
2019-05-01T11:47:22.102Z,154328.48
2019-05-01T11:49:50.584Z,154346.98
2019-05-01T11:52:19.134Z,154306.03
2019-05-01T11:54:47.618Z,154288.84
2019-05-01T11:57:16.119Z,154276.97
2019-05-01T11:59:44.613Z,154180.58
2019-05-01T12:02:13.105Z,154175.28
2019-05-01T12:04:41.602Z,154143.59
2019-05-01T12:07:10.117Z,154076.25
2019-05-01T12:09:38.601Z,154059.06
2019-05-01T12:12:11.458Z,154078.88
2019-05-01T12:14:39.936Z,154126.41
2019-05-01T12:17:10.185Z,154147.53
2019-05-01T12:19:38.675Z,154143.59
2019-05-01T12:22:07.272Z,154127.78
2019-05-01T12:24:35.729Z,154140.97
2019-05-01T12:27:04.206Z,154127.78
2019-05-01T12:29:32.698Z,154130.41
2019-05-01T12:32:01.176Z,154119.80
2019-05-01T12:34:29.685Z,154121.16
2019-05-01T12:37:18.132Z,154196.41
2019-05-01T12:39:47.122Z,154224.14
2019-05-01T12:42:17.311Z,154245.28
2019-05-01T12:44:45.913Z,154210.95
2019-05-01T12:47:21.816Z,154243.97
2019-05-01T12:49:51.970Z,154185.84
2019-05-01T12:52:22.300Z,154192.45
2019-05-01T12:54:52.492Z,154193.78
2019-05-01T12:57:20.966Z,154180.58
2019-05-01T12:59:49.560Z,154191.14
2019-05-01T13:02:18.009Z,154148.89
2019-05-01T13:04:46.611Z,154114.48
2019-05-01T13:07:15.380Z,154135.66
2019-05-01T13:09:44.059Z,154175.28
2019-05-01T13:12:12.534Z,154164.72
2019-05-01T13:14:41.032Z,154134.34
2019-05-01T13:17:09.504Z,154135.66
2019-05-01T13:19:38.037Z,154130.41
2019-05-01T13:22:07.578Z,154105.23
2019-05-01T13:24:37.743Z,154093.38
2019-05-01T13:27:13.965Z,154089.42
2019-05-01T13:29:46.558Z,154089.42
2019-05-01T13:32:33.052Z,154060.37
2019-05-01T13:35:01.558Z,154051.14
2019-05-01T13:37:30.051Z,154030.02
2019-05-01T13:39:58.657Z,154022.09
2019-05-01T13:42:27.156Z,154024.77
2019-05-01T13:44:55.744Z,154059.06
2019-05-01T13:47:24.219Z,154067.00
2019-05-01T13:49:52.891Z,154056.44
2019-05-01T13:52:21.385Z,154037.95
2019-05-01T13:54:49.910Z,154056.44
2019-05-01T13:57:18.385Z,154023.45
2019-05-01T13:59:46.882Z,154049.81
2019-05-01T14:02:15.379Z,154057.75
2019-05-01T14:04:43.881Z,154037.95
2019-05-01T14:07:16.548Z,154026.08
2019-05-01T14:09:42.902Z,154034.00
2019-05-01T14:12:11.398Z,154015.53
2019-05-01T14:14:39.914Z,154014.22
2019-05-01T14:17:08.386Z,154031.33
2019-05-01T14:22:30.167Z,154014.22
2019-05-01T14:25:00.316Z,154043.20
2019-05-01T14:27:28.764Z,154043.20
2019-05-01T14:29:57.275Z,154059.06
2019-05-01T14:32:26.386Z,154069.63
2019-05-01T14:34:54.878Z,154077.56
2019-05-01T14:37:29.647Z,154056.44
2019-05-01T14:39:54.922Z,154026.08
2019-05-01T14:42:23.446Z,154028.70
2019-05-01T14:44:51.985Z,154040.58
2019-05-01T14:47:23.893Z,154049.81
2019-05-01T14:49:52.414Z,154051.14
2019-05-01T14:52:20.909Z,154053.77
2019-05-01T14:54:49.398Z,154047.19
2019-05-01T14:57:17.890Z,154056.44
2019-05-01T14:59:46.376Z,154068.31
2019-05-01T15:02:14.957Z,154077.56
2019-05-01T15:04:43.535Z,154081.50
2019-05-01T15:07:12.130Z,154085.44
2019-05-01T15:09:40.605Z,154069.63
2019-05-01T15:12:10.101Z,154045.88
2019-05-01T15:14:40.246Z,154065.69
2019-05-01T15:17:10.369Z,154080.19
2019-05-01T15:19:48.407Z,154090.75
2019-05-01T15:22:16.993Z,154082.81
2019-05-01T15:24:45.497Z,154069.63
2019-05-01T15:27:14.078Z,154074.88
2019-05-01T15:29:42.579Z,154067.00
2019-05-01T15:32:11.048Z,154041.89
2019-05-01T15:34:39.508Z,154039.27
2019-05-01T15:37:08.003Z,154037.95
2019-05-01T15:39:40.851Z,154048.50
2019-05-01T15:42:20.032Z,154051.14
2019-05-01T15:44:48.503Z,154056.44
2019-05-01T15:47:16.995Z,154060.37
2019-05-01T15:49:45.456Z,154056.44
2019-05-01T15:52:14.008Z,154048.50
2019-05-01T15:54:42.488Z,154040.58
2019-05-01T15:57:10.971Z,154044.56
2019-05-01T15:59:39.463Z,154039.27
2019-05-01T16:02:07.964Z,153997.03
2019-05-01T16:04:36.442Z,153973.30
2019-05-01T16:07:05.417Z,153964.06
2019-05-01T16:09:33.889Z,153937.64
2019-05-01T16:12:20.199Z,153924.47
2019-05-01T16:14:49.107Z,153923.16
2019-05-01T16:17:18.031Z,153900.73
2019-05-01T16:19:46.556Z,153883.56
2019-05-01T16:22:15.034Z,153867.77
2019-05-01T16:24:43.523Z,153866.41
2019-05-01T16:27:12.182Z,153871.70
2019-05-01T16:29:40.755Z,153874.33
2019-05-01T16:32:09.403Z,153888.86
2019-05-01T16:34:37.897Z,153898.06
2019-05-01T16:37:07.053Z,153899.42
2019-05-01T16:39:55.889Z,153904.67
2019-05-01T16:42:26.345Z,153908.61
2019-05-01T16:44:55.116Z,153917.84
2019-05-01T16:47:23.579Z,153921.84
2019-05-01T16:49:52.062Z,153927.09
2019-05-01T16:52:22.449Z,153931.08
2019-05-01T16:54:59.022Z,153927.09
2019-05-01T16:57:21.294Z,153928.41
2019-05-01T16:59:49.784Z,153931.08
2019-05-01T17:02:28.597Z,153921.84
2019-05-01T17:04:58.718Z,153927.09
2019-05-01T17:07:28.927Z,153924.47
2019-05-01T17:10:17.155Z,153917.84
2019-05-01T17:12:50.823Z,153909.97
2019-05-01T17:15:21.371Z,153920.53
2019-05-01T17:17:49.902Z,153928.41
2019-05-01T17:20:18.495Z,153913.91
2019-05-01T17:22:50.813Z,153912.59
2019-05-01T17:25:17.619Z,153903.36
2019-05-01T17:27:47.100Z,153898.06
2019-05-01T17:30:20.105Z,153899.42
2019-05-01T17:32:51.426Z,153896.75
2019-05-01T17:35:19.930Z,153883.56
2019-05-01T17:37:48.406Z,153880.94
2019-05-01T17:40:16.884Z,153867.77
2019-05-01T17:42:45.365Z,153847.92
2019-05-01T17:45:13.990Z,153826.81
2019-05-01T17:47:42.473Z,153829.44
2019-05-01T17:50:11.259Z,153813.59
2019-05-01T17:52:39.979Z,153803.03
2019-05-01T17:55:08.932Z,153797.78
2019-05-01T17:57:37.587Z,153781.94
2019-05-01T18:00:31.526Z,153776.69
2019-05-01T18:03:13.726Z,153772.70
2019-05-01T18:06:01.428Z,153755.59
2019-05-01T18:08:30.066Z,153747.67
2019-05-01T18:10:58.606Z,153712.09
2019-05-01T18:13:27.190Z,153710.72
2019-05-01T18:15:55.644Z,153700.19
2019-05-01T18:18:24.162Z,153675.16
2019-05-01T18:20:52.795Z,153642.20
2019-05-01T18:23:25.783Z,153634.28
2019-05-01T18:25:55.884Z,153621.12
2019-05-01T18:28:29.853Z,153615.81
2019-05-01T18:30:58.793Z,153592.11
2019-05-01T18:33:27.376Z,153584.19
2019-05-01T18:35:55.865Z,153573.59
2019-05-01T18:38:26.033Z,153563.05
2019-05-01T18:40:56.148Z,153560.42
2019-05-01T18:43:27.131Z,153523.50
2019-05-01T18:45:57.493Z,153524.87
2019-05-01T18:48:26.444Z,153519.56
2019-05-01T18:50:56.349Z,153514.33
2019-05-01T18:53:25.088Z,153501.11
2019-05-01T18:55:53.566Z,153490.56
2019-05-01T18:58:22.119Z,153478.72
2019-05-01T19:00:51.041Z,153451.03
2019-05-01T19:03:22.342Z,153436.56
2019-05-01T19:05:49.840Z,153420.78
2019-05-01T19:08:18.627Z,153375.97
2019-05-01T19:10:47.095Z,153378.59
2019-05-01T19:13:17.245Z,153352.27
2019-05-01T19:15:45.885Z,153323.28
2019-05-01T19:18:14.364Z,153318.05
2019-05-01T19:20:42.834Z,153299.59
2019-05-01T19:23:11.373Z,153290.38
2019-05-01T19:25:40.301Z,153262.66
2019-05-01T19:28:09.513Z,153260.03
2019-05-01T19:30:38.049Z,153248.19
2019-05-01T19:33:06.516Z,153233.69
2019-05-01T19:35:35.013Z,153224.50
2019-05-01T19:38:03.473Z,153202.09
2019-05-01T19:40:32.854Z,153212.61
2019-05-01T19:43:01.509Z,153206.06
2019-05-01T19:45:30.686Z,153191.56
2019-05-01T19:47:59.407Z,153158.66
2019-05-01T19:50:27.977Z,153134.97
2019-05-01T19:52:56.499Z,153117.84
2019-05-01T19:55:25.014Z,153111.30
2019-05-01T19:57:53.502Z,153103.39
2019-05-01T20:00:41.816Z,153083.64
2019-05-01T20:03:10.325Z,153057.31
2019-05-01T20:05:41.631Z,153056.00
2019-05-01T20:08:09.012Z,153049.45
2019-05-01T20:10:37.594Z,153029.72
2019-05-01T20:13:06.972Z,153020.50
2019-05-01T20:15:36.482Z,153004.69
2019-05-01T20:18:05.396Z,152977.09
2019-05-01T20:20:34.059Z,152967.88
2019-05-01T20:23:04.213Z,152979.70
2019-05-01T20:25:32.723Z,152967.88
2019-05-01T20:28:01.193Z,152941.50
2019-05-01T20:30:29.757Z,152952.02
2019-05-01T20:33:02.244Z,152948.09
2019-05-01T20:35:30.173Z,152946.78
2019-05-01T20:37:59.064Z,152938.87
2019-05-01T20:40:27.608Z,152961.28
2019-05-01T20:42:56.159Z,152933.64
2019-05-01T20:45:24.702Z,152920.45
2019-05-01T20:47:54.374Z,152907.31
2019-05-01T20:50:23.124Z,152925.73
2019-05-01T20:52:51.763Z,152930.97
2019-05-01T20:55:20.247Z,152890.19
2019-05-01T20:57:49.888Z,152899.41
2019-05-01T21:00:20.995Z,152887.58
2019-05-01T21:02:49.454Z,152879.67
2019-05-01T21:05:28.736Z,152841.58
2019-05-01T21:07:58.877Z,152810.02
2019-05-01T21:10:50.682Z,152806.05
2019-05-01T21:13:17.900Z,152806.05
2019-05-01T21:15:47.247Z,152767.95
2019-05-01T21:18:16.028Z,152762.66
2019-05-01T21:20:44.534Z,152753.45
2019-05-01T21:23:14.379Z,152745.56
2019-05-01T21:25:43.863Z,152725.84
2019-05-01T21:28:14.209Z,152725.84
2019-05-01T21:30:43.984Z,152699.58
2019-05-01T21:33:13.924Z,152694.30
2019-05-01T21:35:44.465Z,152681.16
2019-05-01T21:38:12.840Z,152689.06
2019-05-01T21:40:43.733Z,152691.69
2019-05-01T21:43:13.409Z,152652.25
2019-05-01T21:45:43.359Z,152650.94
2019-05-01T21:48:13.414Z,152657.52
2019-05-01T21:50:43.883Z,152640.42
2019-05-01T21:53:12.929Z,152628.59
2019-05-01T21:55:41.565Z,152600.98
2019-05-01T21:58:10.046Z,152600.98
2019-05-01T22:00:40.669Z,152576.00
2019-05-01T22:03:09.273Z,152577.31
2019-05-01T22:05:39.621Z,152564.19
2019-05-01T22:08:08.322Z,152558.91
2019-05-01T22:10:36.804Z,152530.03
2019-05-01T22:13:05.296Z,152507.66
2019-05-01T22:15:50.564Z,152499.81
2019-05-01T22:18:23.673Z,152482.72
2019-05-01T22:20:53.787Z,152495.84
2019-05-01T22:26:00.037Z,152452.52
2019-05-01T22:28:50.209Z,152452.52
2019-05-01T22:31:22.134Z,152419.69
2019-05-01T22:33:53.248Z,152428.89
2019-05-01T22:36:21.776Z,152430.20
2019-05-01T22:38:50.337Z,152419.69
2019-05-01T22:41:18.801Z,152439.41
2019-05-01T22:43:47.290Z,152398.69
2019-05-01T22:46:17.477Z,152376.38
2019-05-01T22:48:46.001Z,152389.48
2019-05-01T22:51:16.123Z,152410.50
2019-05-01T22:53:46.264Z,152335.67
2019-05-01T22:56:14.831Z,152333.06
2019-05-01T22:58:43.362Z,152314.66
2019-05-01T23:01:13.276Z,152302.86
2019-05-01T23:03:52.685Z,152301.50
2019-05-01T23:06:21.345Z,152270.00
2019-05-01T23:08:51.139Z,152231.97
2019-05-01T23:11:20.743Z,152233.28
2019-05-01T23:13:49.223Z,152216.20
2019-05-01T23:16:19.343Z,152208.31
2019-05-01T23:18:51.925Z,152182.05
2019-05-01T23:21:18.124Z,152182.05
2019-05-01T23:23:46.658Z,152161.06
2019-05-01T23:26:16.824Z,152159.75
2019-05-01T23:28:45.353Z,152161.06
2019-05-01T23:31:15.407Z,152149.25
2019-05-01T23:33:45.804Z,152145.28
2019-05-01T23:36:23.293Z,152141.38
2019-05-01T23:38:44.438Z,152132.19
2019-05-01T23:41:12.879Z,152147.95
2019-05-01T23:43:41.455Z,152141.38
2019-05-01T23:46:10.112Z,152142.67
2019-05-01T23:48:38.602Z,152126.95
2019-05-01T23:51:07.106Z,152132.19
2019-05-01T23:53:35.585Z,152121.69
2019-05-01T23:56:04.164Z,152119.08
2019-05-01T23:58:32.644Z,152104.63
